Veuillez saisir l'adresse e-mail associée à votre compte d'utilisateur. Votre identifiant vous sera envoyé à cette adresse.

METAR TAF

[Source: ADDS]
METAR
LFCR 210500Z AUTO VRB01KT 0200 0150 R31/M0200D FG VV/// 07/07 Q1016 BECMG 9999 NSW BKN006 =
LFCR 210500Z 2106/2206 VRB02KT 0400 FG VV/// TEMPO 2106/2107 0200 BECMG 2107/2109 4000 BR OVC003 BECMG 2109/2111 9999 NSW BKN012 PROB40 TEMPO 2114/2118 SHRA SCT022CB BKN035 BECMG 2118/2120 SCT020 PROB40 TEMPO 2200/2206 4000 BR LFBA 210500Z AUTO 30002KT 6000 BKN007 08/07 Q1017 =
LFBA 210500Z 2106/2115 32006KT 5000 BKN007 PROB30 TEMPO 2106/2107 0500 FG VV/// BECMG 2108/2110 CAVOK LFSL 210500Z AUTO VRB03KT 0350 R29/0400N FG VV/// 08/08 Q1016 NOSIG =
LFSL 210200Z 2103/2112 VRB02KT 4500 BR NSC TEMPO 2103/2107 0600 FG VV/// PROB40 TEMPO 2103/2107 0300 BECMG 2107/2109 9999 NSW SCT015 LFLW 210500Z AUTO 00000KT 1700 BR VV/// 07/06 Q1015 =
LFLW 210500Z 2106/2115 VRB03KT 6000 BKN030 TEMPO 2106/2108 1500 BR OVC002 BECMG 2108/2110 33008KT 9999 NSW BKN020 TEMPO 2110/2115 4000 SHRA BKN023TCU PROB40 TEMPO 2114/2115 2000 TSRA BKN023CB
TAF
LFCR 210500Z 2106/2206 VRB02KT 0400 FG VV/// TEMPO 2106/2107 0200 BECMG 2107/2109 4000 BR OVC003 BECMG 2109/2111 9999 NSW BKN012 PROB40 TEMPO 2114/2118 SHRA SCT022CB BKN035 BECMG 2118/2120 SCT020 PROB40 TEMPO 2200/2206 4000 BR =
LFBA 210500Z 2106/2115 32006KT 5000 BKN007 PROB30 TEMPO 2106/2107 0500 FG VV/// BECMG 2108/2110 CAVOK =
LFSL 210200Z 2103/2112 VRB02KT 4500 BR NSC TEMPO 2103/2107 0600 FG VV/// PROB40 TEMPO 2103/2107 0300 BECMG 2107/2109 9999 NSW SCT015 =
LFLW 210500Z 2106/2115 VRB03KT 6000 BKN030 TEMPO 2106/2108 1500 BR OVC002 BECMG 2108/2110 33008KT 9999 NSW BKN020 TEMPO 2110/2115 4000 SHRA BKN023TCU PROB40 TEMPO 2114/2115 2000 TSRA BKN023CB =
SR / SS: 04:20 / 19:20 UTC (LFCC 2019-05-21)